Time;durP1;ratioP1;P1;durP2;ratioP2;P2;SDS_P1;SDS_P2;PMS_P1;PMS_P2;Temp;Humidity;BMP_temperature;BMP_pressure;BME280_temperature;BME280_humidity;BME280_pressure;Samples;Min_cycle;Max_cycle;Signal;HPM_P1;HPM_P2
2023/12/21 00:02:24;;;;;;;2.67;2.47;;;9.50;99.90;;;;;;5046479;28;20200;-66
2023/12/21 00:04:51;;;;;;;3.45;2.45;;;9.50;99.90;;;;;;5051227;28;20251;-66
2023/12/21 00:07:20;;;;;;;2.75;2.03;;;9.50;99.90;;;;;;5053263;28;20211;-66
2023/12/21 00:09:47;;;;;;;6.82;3.05;;;9.50;99.90;;;;;;5050174;28;20289;-67
2023/12/21 00:12:14;;;;;;;5.68;2.78;;;9.60;99.90;;;;;;5052947;28;20564;-65
2023/12/21 00:14:41;;;;;;;4.47;3.10;;;9.50;99.90;;;;;;5053729;28;20281;-69
2023/12/21 00:17:08;;;;;;;2.92;2.60;;;9.60;99.90;;;;;;5054251;28;20600;-65
2023/12/21 00:19:35;;;;;;;3.40;2.25;;;9.60;99.90;;;;;;5054057;28;20600;-67
2023/12/21 00:22:02;;;;;;;5.32;2.63;;;9.60;99.90;;;;;;5053739;28;20246;-69
2023/12/21 00:24:31;;;;;;;4.57;2.80;;;9.60;99.90;;;;;;5053465;28;20598;-66
2023/12/21 00:26:58;;;;;;;5.97;2.70;;;9.60;99.90;;;;;;5053127;28;20698;-69
2023/12/21 00:29:25;;;;;;;3.75;2.60;;;9.60;99.90;;;;;;5052975;28;20200;-68
2023/12/21 00:31:52;;;;;;;2.70;2.20;;;9.60;99.90;;;;;;5054128;28;20200;-68
2023/12/21 00:34:19;;;;;;;6.30;2.80;;;9.60;99.90;;;;;;5052565;28;20603;-65
2023/12/21 00:36:47;;;;;;;5.30;2.58;;;9.60;99.90;;;;;;5053544;28;20224;-69
2023/12/21 00:39:14;;;;;;;3.38;1.60;;;9.60;99.90;;;;;;5052570;28;20310;-68
2023/12/21 00:41:42;;;;;;;8.55;2.65;;;9.70;99.90;;;;;;5052807;28;20203;-70
2023/12/21 00:44:09;;;;;;;5.10;2.80;;;9.70;99.90;;;;;;5053609;28;20200;-68
2023/12/21 00:46:36;;;;;;;4.32;2.90;;;9.70;99.90;;;;;;5050929;28;20223;-68
2023/12/21 00:49:03;;;;;;;2.72;2.13;;;9.60;99.90;;;;;;5053999;28;20577;-69
2023/12/21 00:51:30;;;;;;;3.10;2.33;;;9.50;99.90;;;;;;5053294;28;20285;-70
2023/12/21 00:53:59;;;;;;;3.10;2.65;;;9.60;99.90;;;;;;5053741;28;20200;-68
2023/12/21 00:56:26;;;;;;;3.72;2.30;;;9.60;99.90;;;;;;5048619;28;20220;-66
2023/12/21 00:58:59;;;;;;;4.90;2.72;;;9.60;99.90;;;;;;5053313;28;20224;-66
2023/12/21 01:01:27;;;;;;;6.88;2.75;;;9.60;99.90;;;;;;5044457;28;20201;-69
2023/12/21 01:03:54;;;;;;;3.75;2.25;;;9.60;99.90;;;;;;5053114;28;20215;-71
2023/12/21 01:06:21;;;;;;;2.15;1.98;;;9.60;99.90;;;;;;5051944;28;20247;-63
2023/12/21 01:08:48;;;;;;;5.63;3.00;;;9.70;99.90;;;;;;5052856;28;20249;-67
2023/12/21 01:11:15;;;;;;;3.38;1.80;;;9.60;99.90;;;;;;5052629;28;20654;-69
2023/12/21 01:13:42;;;;;;;2.60;2.00;;;9.70;99.90;;;;;;5051567;28;20623;-70
2023/12/21 01:16:10;;;;;;;12.32;3.40;;;9.70;99.90;;;;;;5046467;28;20235;-67
2023/12/21 01:18:37;;;;;;;2.45;2.17;;;9.70;99.90;;;;;;5052980;28;20311;-67
2023/12/21 01:21:05;;;;;;;3.00;2.08;;;9.70;99.90;;;;;;5053412;28;20551;-64
2023/12/21 01:23:32;;;;;;;7.25;2.85;;;9.70;99.90;;;;;;5052990;28;20207;-71
2023/12/21 01:25:59;;;;;;;5.60;2.03;;;9.70;99.90;;;;;;5160015;22;20300;-66
2023/12/21 01:28:26;;;;;;;2.88;2.40;;;9.70;99.90;;;;;;5071210;28;20191;-66
2023/12/21 01:30:53;;;;;;;4.43;2.90;;;9.70;99.90;;;;;;5067588;28;20231;-69
2023/12/21 01:33:21;;;;;;;2.72;2.40;;;9.70;99.90;;;;;;5063231;28;20200;-68
2023/12/21 01:35:48;;;;;;;8.48;2.97;;;9.70;99.90;;;;;;5065361;28;20195;-69
2023/12/21 01:38:15;;;;;;;7.30;3.08;;;9.70;99.90;;;;;;5062917;28;20255;-67
2023/12/21 01:40:42;;;;;;;7.50;2.90;;;9.70;99.90;;;;;;5075999;28;20255;-69
2023/12/21 01:43:09;;;;;;;4.78;3.30;;;9.70;99.90;;;;;;5072467;28;20213;-67
2023/12/21 01:45:36;;;;;;;8.07;4.95;;;9.70;99.90;;;;;;5068622;28;20203;-69
2023/12/21 01:48:04;;;;;;;4.93;2.95;;;9.70;99.90;;;;;;5068844;28;20290;-65
2023/12/21 01:50:32;;;;;;;12.05;5.07;;;9.70;99.90;;;;;;5066901;28;20614;-68
2023/12/21 01:53:00;;;;;;;8.10;3.50;;;9.60;99.90;;;;;;5061858;28;20257;-68
2023/12/21 01:55:28;;;;;;;8.77;3.38;;;9.60;99.90;;;;;;5073083;28;20222;-68
2023/12/21 01:57:55;;;;;;;7.15;3.47;;;9.60;99.90;;;;;;5070531;28;20308;-67
2023/12/21 02:00:23;;;;;;;8.35;3.35;;;9.60;99.90;;;;;;5068231;28;20257;-68
2023/12/21 02:02:51;;;;;;;12.00;3.30;;;9.60;99.90;;;;;;5064534;28;20203;-67
2023/12/21 02:05:19;;;;;;;8.52;3.75;;;9.60;99.90;;;;;;5069224;28;20212;-65
2023/12/21 02:07:47;;;;;;;12.50;4.00;;;9.60;99.90;;;;;;5073981;28;20637;-66
2023/12/21 02:10:14;;;;;;;10.48;4.20;;;9.60;99.90;;;;;;5062434;28;20208;-69
2023/12/21 02:12:41;;;;;;;7.82;4.00;;;9.60;99.90;;;;;;5061885;28;20235;-66
2023/12/21 02:15:09;;;;;;;6.78;4.30;;;9.60;99.90;;;;;;5064482;28;20203;-67
2023/12/21 02:17:39;;;;;;;6.00;4.18;;;9.60;99.90;;;;;;5076354;28;20227;-65
2023/12/21 02:20:07;;;;;;;8.50;4.30;;;9.60;99.90;;;;;;5066653;28;20245;-68
2023/12/21 02:22:35;;;;;;;11.65;4.35;;;9.60;99.90;;;;;;5070368;28;20200;-66
2023/12/21 02:25:05;;;;;;;8.95;5.05;;;9.60;99.90;;;;;;5066331;28;20234;-67
2023/12/21 02:27:32;;;;;;;6.60;4.50;;;9.70;99.90;;;;;;5070935;28;20281;-70
2023/12/21 02:29:59;;;;;;;14.73;5.97;;;9.60;99.90;;;;;;5072076;28;20653;-70
2023/12/21 02:32:26;;;;;;;14.68;5.35;;;9.60;99.90;;;;;;5073831;28;20203;-70
2023/12/21 02:34:53;;;;;;;10.00;5.35;;;9.60;99.90;;;;;;5063499;28;20234;-70
2023/12/21 02:37:21;;;;;;;18.50;6.57;;;9.60;99.90;;;;;;5072330;28;20219;-67
2023/12/21 02:39:48;;;;;;;13.00;6.85;;;9.60;99.90;;;;;;5066553;28;20767;-66
2023/12/21 02:42:16;;;;;;;10.05;4.88;;;9.60;99.90;;;;;;5072147;28;20608;-67
2023/12/21 02:44:43;;;;;;;9.35;5.55;;;9.60;99.90;;;;;;5068890;28;20204;-69
2023/12/21 02:47:10;;;;;;;7.03;4.82;;;9.60;99.90;;;;;;5072231;28;20273;-68
2023/12/21 02:49:37;;;;;;;13.20;5.53;;;9.60;99.90;;;;;;5071359;28;20200;-70
2023/12/21 02:52:05;;;;;;;9.13;5.00;;;9.60;99.90;;;;;;5063416;28;20650;-69
2023/12/21 02:54:32;;;;;;;8.52;5.40;;;9.60;99.90;;;;;;5069994;28;20711;-66
2023/12/21 02:56:59;;;;;;;9.30;4.13;;;9.70;99.90;;;;;;5065617;28;20223;-66
2023/12/21 02:59:27;;;;;;;13.02;5.70;;;9.60;99.90;;;;;;5071339;28;20343;-67
2023/12/21 03:01:55;;;;;;;21.50;6.00;;;9.60;99.90;;;;;;5068063;28;20202;-69
2023/12/21 03:04:22;;;;;;;11.40;6.00;;;9.60;99.90;;;;;;5070662;28;20200;-69
2023/12/21 03:06:49;;;;;;;13.63;6.35;;;9.60;99.90;;;;;;5070389;28;20247;-70
2023/12/21 03:09:15;;;;;;;8.90;5.55;;;9.60;99.90;;;;;;5062777;28;20228;-67
2023/12/21 03:11:42;;;;;;;8.82;6.53;;;9.60;99.90;;;;;;5074885;28;20204;-67
2023/12/21 03:14:09;;;;;;;11.00;5.13;;;9.60;99.90;;;;;;5065561;28;20239;-71
2023/12/21 03:16:38;;;;;;;9.73;5.45;;;9.50;99.90;;;;;;5064387;28;20223;-69
2023/12/21 03:19:05;;;;;;;9.88;5.68;;;9.60;99.90;;;;;;5072106;28;20310;-69
2023/12/21 03:21:32;;;;;;;9.07;4.60;;;9.60;99.90;;;;;;5074623;28;20223;-66
2023/12/21 03:23:58;;;;;;;8.20;7.45;;;9.60;99.90;;;;;;5077038;28;20665;-68
2023/12/21 03:26:25;;;;;;;8.40;4.17;;;9.60;99.90;;;;;;5025482;28;1148120;-66
2023/12/21 03:28:53;;;;;;;10.38;5.10;;;9.60;99.90;;;;;;5074577;28;20226;-67
2023/12/21 03:31:20;;;;;;;11.30;6.00;;;9.60;99.90;;;;;;5067204;28;20196;-67
2023/12/21 03:33:48;;;;;;;12.10;5.55;;;9.60;99.90;;;;;;5071636;28;20565;-66
2023/12/21 03:36:15;;;;;;;10.18;6.75;;;9.60;99.90;;;;;;5066974;28;20234;-64
2023/12/21 03:38:42;;;;;;;9.45;6.57;;;9.60;99.90;;;;;;5075188;28;20567;-68
2023/12/21 03:41:10;;;;;;;13.75;7.35;;;9.70;99.90;;;;;;5065853;28;20736;-68
2023/12/21 03:43:37;;;;;;;11.35;7.38;;;9.70;99.90;;;;;;5071244;28;20207;-67
2023/12/21 03:46:04;;;;;;;12.18;8.00;;;9.70;99.90;;;;;;5067156;28;20199;-67
2023/12/21 03:48:31;;;;;;;11.02;8.10;;;9.70;99.90;;;;;;5065105;28;20240;-69
2023/12/21 03:50:59;;;;;;;11.82;7.32;;;9.70;99.90;;;;;;5068760;28;20235;-65
2023/12/21 03:53:26;;;;;;;14.98;9.27;;;9.70;99.90;;;;;;5061380;28;20204;-68
2023/12/21 03:55:53;;;;;;;15.65;9.40;;;9.70;99.90;;;;;;5074108;28;20260;-68
2023/12/21 03:58:20;;;;;;;13.75;9.38;;;9.70;99.90;;;;;;5063355;28;20251;-69
2023/12/21 04:00:47;;;;;;;13.32;8.60;;;9.70;99.90;;;;;;5071222;28;20285;-64
2023/12/21 04:03:14;;;;;;;13.30;8.93;;;9.70;99.90;;;;;;5068723;28;20235;-66
2023/12/21 04:05:41;;;;;;;15.00;7.85;;;9.70;99.90;;;;;;5077715;28;20195;-66
2023/12/21 04:08:09;;;;;;;14.25;7.70;;;9.60;99.90;;;;;;5073426;28;20230;-67
2023/12/21 04:10:36;;;;;;;13.43;7.95;;;9.70;99.90;;;;;;5064964;28;20234;-67
2023/12/21 04:13:03;;;;;;;11.20;7.50;;;9.60;99.90;;;;;;5065230;28;20247;-67
2023/12/21 04:15:30;;;;;;;12.55;7.63;;;9.60;99.90;;;;;;5066236;28;20646;-67
2023/12/21 04:17:57;;;;;;;16.38;7.80;;;9.60;99.90;;;;;;5075539;28;20257;-69
2023/12/21 04:20:24;;;;;;;18.50;7.15;;;9.60;99.90;;;;;;5067571;28;20273;-65
2023/12/21 04:22:53;;;;;;;17.00;7.85;;;9.60;99.90;;;;;;5069821;28;20246;-68
2023/12/21 04:25:22;;;;;;;10.75;6.30;;;9.60;99.90;;;;;;5064630;28;20230;-68
2023/12/21 04:27:49;;;;;;;11.57;5.80;;;9.60;99.90;;;;;;5066614;28;20787;-66
2023/12/21 04:30:16;;;;;;;11.30;6.90;;;9.50;99.90;;;;;;5072516;28;20658;-66
2023/12/21 04:32:43;;;;;;;9.70;6.55;;;9.50;99.90;;;;;;5064151;28;20207;-67
2023/12/21 04:35:10;;;;;;;11.55;6.68;;;9.60;99.90;;;;;;5075161;28;20199;-69
2023/12/21 04:37:37;;;;;;;9.63;6.38;;;9.60;99.90;;;;;;5064372;28;20227;-68
2023/12/21 04:40:05;;;;;;;8.15;6.18;;;9.60;99.90;;;;;;5064204;28;20219;-67
2023/12/21 04:42:33;;;;;;;6.60;5.15;;;9.60;99.90;;;;;;5079637;28;20338;-65
2023/12/21 04:45:01;;;;;;;14.50;6.90;;;9.50;99.90;;;;;;5064600;28;20236;-67
2023/12/21 04:47:28;;;;;;;8.75;7.18;;;9.50;99.90;;;;;;5085832;28;20223;-68
2023/12/21 04:49:55;;;;;;;8.73;5.43;;;9.50;99.90;;;;;;5069192;28;20199;-69
2023/12/21 04:52:22;;;;;;;7.10;5.80;;;9.60;99.90;;;;;;5082385;28;20203;-68
2023/12/21 04:54:49;;;;;;;9.18;5.40;;;9.50;99.90;;;;;;5074886;28;20292;-66
2023/12/21 04:57:16;;;;;;;10.68;5.18;;;9.50;99.90;;;;;;5072998;28;20254;-68
2023/12/21 04:59:44;;;;;;;7.40;5.78;;;9.50;99.90;;;;;;5072455;28;20222;-64
2023/12/21 05:02:11;;;;;;;11.40;5.40;;;9.50;99.90;;;;;;5062988;28;20277;-69
2023/12/21 05:04:39;;;;;;;6.30;4.85;;;9.50;99.90;;;;;;5070373;28;20235;-67
2023/12/21 05:07:10;;;;;;;11.30;5.70;;;9.50;99.90;;;;;;5065659;28;20226;-69
2023/12/21 05:09:37;;;;;;;9.75;5.40;;;9.50;99.90;;;;;;5070770;28;20191;-67
2023/12/21 05:12:05;;;;;;;6.93;5.13;;;9.50;99.90;;;;;;5071499;28;20664;-66
2023/12/21 05:14:32;;;;;;;11.57;6.05;;;9.50;99.90;;;;;;5068125;28;20219;-67
2023/12/21 05:17:02;;;;;;;6.60;5.28;;;9.50;99.90;;;;;;5072515;28;20219;-69
2023/12/21 05:19:29;;;;;;;5.97;5.15;;;9.50;99.90;;;;;;5065158;28;20593;-69
2023/12/21 05:21:58;;;;;;;8.68;4.82;;;9.50;99.90;;;;;;5065221;28;20195;-67
2023/12/21 05:24:25;;;;;;;8.05;5.47;;;9.50;99.90;;;;;;5064919;28;20227;-67
2023/12/21 05:26:52;;;;;;;5.50;4.80;;;9.50;99.90;;;;;;5064859;28;20262;-67
2023/12/21 05:29:19;;;;;;;7.78;6.05;;;9.50;99.90;;;;;;5068011;28;20200;-67
2023/12/21 05:31:46;;;;;;;5.80;4.63;;;9.50;99.90;;;;;;5059133;28;20235;-67
2023/12/21 05:34:15;;;;;;;6.00;4.43;;;9.50;99.90;;;;;;5071748;28;20547;-68
2023/12/21 05:36:41;;;;;;;8.45;4.95;;;9.50;99.90;;;;;;5066154;28;20226;-67
2023/12/21 05:39:09;;;;;;;5.57;3.78;;;9.50;99.90;;;;;;5072820;28;20223;-66
2023/12/21 05:41:36;;;;;;;6.57;4.35;;;9.50;99.90;;;;;;5058853;28;20207;-67
2023/12/21 05:44:03;;;;;;;5.10;4.60;;;9.50;99.90;;;;;;5068282;28;20213;-66
2023/12/21 05:46:30;;;;;;;8.77;4.15;;;9.50;99.90;;;;;;5058818;28;20251;-66
2023/12/21 05:48:57;;;;;;;5.05;4.10;;;9.40;99.90;;;;;;5064952;28;20254;-66
2023/12/21 05:51:25;;;;;;;5.05;4.43;;;9.40;99.90;;;;;;5065270;28;20247;-66
2023/12/21 05:53:52;;;;;;;7.15;4.72;;;9.40;99.90;;;;;;5068142;28;20199;-66
2023/12/21 05:56:21;;;;;;;5.63;5.03;;;9.50;99.90;;;;;;5063090;28;20230;-68
2023/12/21 05:58:47;;;;;;;4.53;4.05;;;9.50;99.90;;;;;;5064312;28;20264;-66
2023/12/21 06:01:14;;;;;;;8.15;4.55;;;9.40;99.90;;;;;;5070633;28;20711;-68
2023/12/21 06:03:41;;;;;;;4.95;4.45;;;9.50;99.90;;;;;;5064569;28;20230;-64
2023/12/21 06:06:08;;;;;;;8.40;4.43;;;9.50;99.90;;;;;;5074957;28;20198;-65
2023/12/21 06:08:37;;;;;;;5.07;3.97;;;9.50;99.90;;;;;;5067800;28;20200;-67
2023/12/21 06:11:04;;;;;;;6.00;3.85;;;9.50;99.90;;;;;;5063617;28;20624;-65
2023/12/21 06:13:31;;;;;;;7.45;4.10;;;9.50;99.90;;;;;;5067170;28;20231;-68
2023/12/21 06:15:58;;;;;;;5.32;4.70;;;9.50;99.90;;;;;;5063691;28;20203;-65
2023/12/21 06:18:25;;;;;;;5.32;4.32;;;9.50;99.90;;;;;;5067747;28;20235;-67
2023/12/21 06:20:52;;;;;;;3.92;3.63;;;9.50;99.90;;;;;;5075099;28;20219;-69
2023/12/21 06:23:20;;;;;;;5.43;4.60;;;9.50;99.90;;;;;;5069131;28;20206;-67
2023/12/21 06:25:49;;;;;;;4.93;3.97;;;9.50;99.90;;;;;;5071157;28;20203;-66
2023/12/21 06:28:16;;;;;;;4.20;3.50;;;9.50;99.90;;;;;;5069510;28;20251;-69
2023/12/21 06:30:43;;;;;;;5.57;4.82;;;9.50;99.90;;;;;;5064533;28;20235;-68
2023/12/21 06:33:10;;;;;;;3.65;3.17;;;9.50;99.90;;;;;;5065412;28;20231;-66
2023/12/21 06:35:37;;;;;;;4.88;3.75;;;9.50;99.90;;;;;;5070352;28;20238;-68
2023/12/21 06:38:06;;;;;;;4.68;3.25;;;9.50;99.90;;;;;;5059900;28;20219;-67
2023/12/21 06:40:33;;;;;;;4.90;3.58;;;9.50;99.90;;;;;;5066445;28;20257;-68
2023/12/21 06:43:01;;;;;;;3.55;3.25;;;9.50;99.90;;;;;;5064817;28;20266;-69
2023/12/21 06:45:28;;;;;;;3.45;3.15;;;9.50;99.90;;;;;;5060191;28;20642;-66
2023/12/21 06:47:55;;;;;;;4.25;3.85;;;9.50;99.90;;;;;;5072516;28;20255;-70
2023/12/21 06:50:22;;;;;;;7.13;3.72;;;9.50;99.90;;;;;;5068787;28;20192;-68
2023/12/21 06:52:49;;;;;;;4.07;3.35;;;9.50;99.90;;;;;;5064134;28;20597;-67
2023/12/21 06:55:16;;;;;;;13.43;4.50;;;9.50;99.90;;;;;;5063314;28;20240;-68
2023/12/21 06:57:43;;;;;;;3.45;3.15;;;9.50;99.90;;;;;;5061407;28;20310;-68
2023/12/21 07:00:13;;;;;;;3.75;3.20;;;9.50;99.90;;;;;;5064298;28;20313;-70
2023/12/21 07:02:40;;;;;;;3.47;3.17;;;9.50;99.90;;;;;;5064654;28;20200;-72
2023/12/21 07:05:08;;;;;;;4.25;3.05;;;9.50;99.90;;;;;;5073327;28;20239;-71
2023/12/21 07:07:35;;;;;;;2.60;2.40;;;9.50;99.90;;;;;;5061773;28;20220;-70
2023/12/21 07:10:02;;;;;;;2.60;2.40;;;9.50;99.90;;;;;;5068716;28;20250;-67
2023/12/21 07:12:29;;;;;;;3.33;3.03;;;9.50;99.90;;;;;;5070426;28;20233;-71
2023/12/21 07:14:56;;;;;;;2.00;1.90;;;9.50;99.90;;;;;;5068574;28;20203;-70
2023/12/21 07:17:24;;;;;;;4.68;3.58;;;9.50;99.90;;;;;;5067411;28;20277;-69
2023/12/21 07:19:51;;;;;;;1.80;1.70;;;9.50;99.90;;;;;;5060044;28;20591;-68
2023/12/21 07:22:19;;;;;;;2.40;2.20;;;9.60;99.90;;;;;;5074532;28;20196;-72
2023/12/21 07:24:46;;;;;;;2.38;2.03;;;9.60;99.90;;;;;;5066209;28;20652;-71
2023/12/21 07:27:15;;;;;;;1.60;1.50;;;9.60;99.90;;;;;;5147736;22;20255;-69
2023/12/21 07:29:44;;;;;;;2.22;2.13;;;9.60;99.90;;;;;;5069537;28;20638;-70
2023/12/21 07:32:12;;;;;;;2.92;1.60;;;9.60;99.90;;;;;;5075601;28;20516;-71
2023/12/21 07:34:40;;;;;;;2.13;2.03;;;9.60;99.90;;;;;;5070904;28;20665;-67
2023/12/21 07:37:08;;;;;;;1.50;1.35;;;9.60;99.90;;;;;;5066251;28;20250;-68
2023/12/21 07:39:35;;;;;;;1.75;1.65;;;9.60;99.90;;;;;;5056093;28;20228;-71
2023/12/21 07:42:02;;;;;;;4.65;2.25;;;9.60;99.90;;;;;;5069425;28;20230;-66
2023/12/21 07:44:29;;;;;;;2.80;2.50;;;9.60;99.90;;;;;;5065248;28;20204;-67
2023/12/21 07:46:56;;;;;;;7.78;3.85;;;9.60;99.90;;;;;;5062837;28;20597;-66
2023/12/21 07:49:24;;;;;;;3.17;2.58;;;9.60;99.90;;;;;;5065778;28;20277;-70
2023/12/21 07:51:52;;;;;;;2.40;1.98;;;9.60;99.90;;;;;;5059217;28;20203;-69
2023/12/21 07:54:20;;;;;;;2.13;1.92;;;9.60;99.90;;;;;;5069042;28;20231;-70
2023/12/21 07:56:48;;;;;;;3.13;2.60;;;9.70;99.90;;;;;;5060624;28;20715;-69
2023/12/21 07:59:15;;;;;;;3.70;2.40;;;9.70;99.90;;;;;;5054486;28;20282;-69
2023/12/21 08:01:42;;;;;;;2.90;2.40;;;9.70;99.90;;;;;;5071534;28;20227;-70
2023/12/21 08:04:09;;;;;;;3.10;2.78;;;9.70;99.90;;;;;;5067636;28;20236;-66
2023/12/21 08:06:36;;;;;;;4.85;2.55;;;9.70;99.90;;;;;;5060920;28;20443;-67
2023/12/21 08:09:05;;;;;;;4.53;3.72;;;9.70;99.90;;;;;;5067020;28;20298;-70
2023/12/21 08:11:32;;;;;;;2.90;2.70;;;9.70;99.90;;;;;;5070704;28;20238;-67
2023/12/21 08:13:59;;;;;;;3.60;3.30;;;9.70;99.90;;;;;;5068437;28;20196;-71
2023/12/21 08:16:25;;;;;;;4.20;3.80;;;9.70;99.90;;;;;;5064775;28;20646;-71
2023/12/21 08:18:52;;;;;;;4.57;3.30;;;9.70;99.90;;;;;;5065404;28;20227;-70
2023/12/21 08:21:19;;;;;;;2.60;2.40;;;9.80;99.90;;;;;;5061193;28;20266;-68
2023/12/21 08:23:46;;;;;;;2.45;2.25;;;9.80;99.90;;;;;;5064837;28;20243;-69
2023/12/21 08:26:15;;;;;;;3.00;2.33;;;9.80;99.90;;;;;;5064200;28;20272;-70
2023/12/21 08:28:42;;;;;;;4.68;2.63;;;9.80;99.90;;;;;;5069823;28;20269;-69
2023/12/21 08:31:09;;;;;;;6.13;2.40;;;9.80;99.90;;;;;;5064167;28;20309;-66
2023/12/21 08:33:38;;;;;;;2.85;1.77;;;9.80;99.90;;;;;;5067698;28;20294;-69
2023/12/21 08:36:05;;;;;;;4.75;2.85;;;9.80;99.90;;;;;;5064293;28;20239;-70
2023/12/21 08:38:32;;;;;;;2.55;1.90;;;9.90;99.90;;;;;;5061985;28;20247;-68
2023/12/21 08:41:02;;;;;;;2.47;1.80;;;9.80;99.90;;;;;;5065592;28;20227;-68
2023/12/21 08:43:32;;;;;;;3.70;2.20;;;9.80;99.90;;;;;;5058521;28;20200;-68
2023/12/21 08:45:59;;;;;;;5.78;2.45;;;9.90;99.90;;;;;;5055378;28;20232;-69
2023/12/21 08:48:26;;;;;;;3.80;2.10;;;9.80;99.90;;;;;;5061485;28;20210;-67
2023/12/21 08:50:53;;;;;;;5.90;1.73;;;9.80;99.90;;;;;;5065174;28;20192;-71
2023/12/21 08:53:20;;;;;;;6.28;2.40;;;9.90;99.90;;;;;;5055862;28;20285;-68
2023/12/21 08:55:47;;;;;;;2.80;1.63;;;9.90;99.90;;;;;;5063337;28;20280;-69
2023/12/21 08:58:14;;;;;;;3.45;1.90;;;9.90;99.90;;;;;;5058543;28;20315;-68
2023/12/21 09:00:44;;;;;;;4.40;1.30;;;9.90;99.90;;;;;;5058414;28;20277;-64
2023/12/21 09:03:11;;;;;;;2.95;1.50;;;10.00;99.90;;;;;;5058445;28;20616;-69
2023/12/21 09:05:38;;;;;;;2.75;1.65;;;10.00;99.90;;;;;;5054961;28;20307;-68
2023/12/21 09:08:06;;;;;;;7.28;2.45;;;9.90;99.90;;;;;;5057990;28;20264;-68
2023/12/21 09:10:33;;;;;;;3.53;1.83;;;9.90;99.90;;;;;;5062325;28;20204;-66
2023/12/21 09:13:00;;;;;;;4.72;1.90;;;9.90;99.90;;;;;;5068183;28;20199;-67
2023/12/21 09:15:28;;;;;;;2.95;1.75;;;10.00;99.90;;;;;;5060413;28;20296;-69
2023/12/21 09:17:57;;;;;;;2.45;1.85;;;9.90;99.90;;;;;;5070941;28;20223;-68
2023/12/21 09:20:25;;;;;;;4.15;1.33;;;9.90;99.90;;;;;;5066318;28;20223;-67
2023/12/21 09:22:52;;;;;;;2.00;1.80;;;9.90;99.90;;;;;;5056856;28;20210;-69
2023/12/21 09:25:19;;;;;;;1.45;1.35;;;9.90;99.90;;;;;;5058725;28;20204;-68
2023/12/21 09:27:46;;;;;;;3.40;1.60;;;10.00;99.90;;;;;;5062719;28;20243;-68
2023/12/21 09:30:14;;;;;;;1.75;1.50;;;10.00;99.90;;;;;;5056244;28;20261;-70
2023/12/21 09:32:41;;;;;;;1.50;1.20;;;10.00;99.90;;;;;;5053773;28;20681;-68
2023/12/21 09:35:11;;;;;;;1.48;0.90;;;10.00;99.90;;;;;;5056920;28;20204;-71
2023/12/21 09:37:38;;;;;;;1.48;1.15;;;10.10;99.90;;;;;;5064473;28;20266;-69
2023/12/21 09:40:06;;;;;;;0.95;0.90;;;10.00;99.90;;;;;;5062527;28;20238;-66
2023/12/21 09:42:38;;;;;;;1.88;1.70;;;10.00;99.90;;;;;;5059355;28;20258;-67
2023/12/21 09:45:06;;;;;;;1.13;1.02;;;10.00;99.90;;;;;;5064451;28;20294;-68
2023/12/21 09:47:33;;;;;;;1.80;1.13;;;10.00;99.90;;;;;;5067565;28;20223;-67
2023/12/21 09:50:04;;;;;;;1.95;1.08;;;10.10;99.90;;;;;;5056239;28;20238;-70
2023/12/21 09:52:34;;;;;;;2.10;1.05;;;10.10;99.90;;;;;;5061027;28;20207;-69
2023/12/21 09:55:02;;;;;;;5.28;1.45;;;10.10;99.90;;;;;;5055563;28;20207;-69
2023/12/21 09:57:30;;;;;;;1.10;0.88;;;10.10;99.90;;;;;;5069371;28;20263;-67
2023/12/21 09:59:58;;;;;;;0.93;0.93;;;10.10;99.90;;;;;;5061583;28;20207;-69
2023/12/21 10:02:30;;;;;;;1.20;1.10;;;10.10;99.90;;;;;;5052089;28;20231;-67
2023/12/21 10:04:57;;;;;;;1.75;0.95;;;10.10;99.90;;;;;;5060714;28;20246;-66
2023/12/21 10:07:26;;;;;;;2.75;1.33;;;10.10;99.90;;;;;;5062348;28;20297;-68
2023/12/21 10:09:54;;;;;;;1.00;1.00;;;10.10;99.90;;;;;;5051792;28;20204;-66
2023/12/21 10:12:21;;;;;;;1.60;1.00;;;10.10;99.90;;;;;;5053961;28;20228;-71
2023/12/21 10:14:58;;;;;;;0.80;0.80;;;10.10;99.90;;;;;;5059201;28;20247;-70
2023/12/21 10:17:25;;;;;;;2.35;0.90;;;10.10;99.90;;;;;;5056980;28;20228;-69
2023/12/21 10:19:52;;;;;;;1.10;1.00;;;10.10;99.90;;;;;;5059388;28;20231;-66
2023/12/21 10:22:21;;;;;;;1.10;0.88;;;10.20;99.90;;;;;;5060509;28;20348;-67
2023/12/21 10:24:50;;;;;;;0.90;0.68;;;10.10;99.90;;;;;;5054130;28;20568;-69
2023/12/21 10:27:21;;;;;;;1.85;0.75;;;10.20;99.90;;;;;;5059175;28;20224;-67
2023/12/21 10:29:58;;;;;;;0.65;0.60;;;10.20;99.90;;;;;;5060495;28;20294;-68
2023/12/21 10:32:25;;;;;;;0.70;0.70;;;10.20;99.90;;;;;;5060671;28;20661;-71
2023/12/21 10:34:54;;;;;;;1.02;0.70;;;10.20;99.90;;;;;;5054598;28;20200;-68
2023/12/21 10:37:24;;;;;;;3.13;1.40;;;10.20;99.90;;;;;;5055856;28;20779;-68
2023/12/21 10:39:51;;;;;;;0.70;0.70;;;10.20;99.90;;;;;;5067012;28;20268;-71
2023/12/21 10:42:19;;;;;;;0.95;0.80;;;10.20;99.90;;;;;;5060216;28;20220;-68
2023/12/21 10:44:49;;;;;;;1.00;0.70;;;10.30;99.90;;;;;;5061938;28;20287;-67
2023/12/21 10:47:17;;;;;;;0.80;0.75;;;10.20;99.90;;;;;;5061736;28;20277;-70
2023/12/21 10:49:45;;;;;;;1.98;0.80;;;10.20;99.90;;;;;;5068188;28;20243;-66
2023/12/21 10:52:13;;;;;;;0.95;0.60;;;10.20;99.90;;;;;;5065456;28;20203;-69
2023/12/21 10:54:42;;;;;;;0.93;0.50;;;10.30;99.90;;;;;;5056206;28;20665;-69
2023/12/21 10:57:10;;;;;;;2.05;0.77;;;10.30;99.90;;;;;;5056608;28;20255;-69
2023/12/21 10:59:39;;;;;;;2.42;2.22;;;10.30;99.90;;;;;;5063290;28;20208;-68
2023/12/21 11:02:11;;;;;;;2.33;0.80;;;10.30;99.90;;;;;;5058560;28;20220;-68
2023/12/21 11:04:39;;;;;;;0.85;0.63;;;10.40;99.90;;;;;;5066805;28;20254;-68
2023/12/21 11:07:09;;;;;;;0.70;0.70;;;10.40;99.90;;;;;;5059906;28;20722;-69
2023/12/21 11:09:36;;;;;;;2.47;1.30;;;10.40;99.90;;;;;;5056254;28;20210;-65
2023/12/21 11:12:04;;;;;;;1.70;1.08;;;10.50;99.90;;;;;;5067200;28;20192;-68
2023/12/21 11:14:31;;;;;;;1.45;1.05;;;10.50;99.90;;;;;;5069529;28;20627;-70
2023/12/21 11:17:01;;;;;;;3.90;2.47;;;10.60;99.90;;;;;;5064221;28;20284;-69
2023/12/21 11:19:32;;;;;;;2.03;1.08;;;10.60;99.90;;;;;;5068209;28;20302;-68
2023/12/21 11:22:00;;;;;;;2.25;1.70;;;10.60;99.90;;;;;;5060879;28;20308;-69
2023/12/21 11:24:27;;;;;;;1.60;1.50;;;10.60;99.90;;;;;;5063484;28;20211;-66
2023/12/21 11:26:59;;;;;;;0.70;0.70;;;10.70;99.90;;;;;;5059402;28;20228;-69
2023/12/21 11:29:28;;;;;;;13.65;2.13;;;10.70;99.90;;;;;;5067281;28;20210;-72
2023/12/21 11:31:55;;;;;;;9.18;3.70;;;10.80;99.90;;;;;;5066386;28;20200;-69
2023/12/21 11:34:35;;;;;;;4.05;2.13;;;10.80;99.90;;;;;;5065129;28;20231;-70
2023/12/21 11:37:17;;;;;;;8.50;2.63;;;10.80;99.90;;;;;;5067498;28;20326;-69
2023/12/21 11:39:46;;;;;;;7.00;2.80;;;10.90;99.90;;;;;;5062849;28;20612;-67
2023/12/21 11:42:13;;;;;;;5.43;2.40;;;10.90;99.90;;;;;;5068105;28;20314;-68
2023/12/21 11:44:40;;;;;;;6.70;2.25;;;10.90;99.90;;;;;;5058185;28;20567;-67
2023/12/21 11:47:08;;;;;;;15.77;4.40;;;10.90;99.90;;;;;;5066131;28;20223;-68
2023/12/21 11:49:37;;;;;;;8.57;3.88;;;10.90;99.90;;;;;;5065864;28;20642;-71
2023/12/21 11:52:05;;;;;;;13.65;3.47;;;10.90;99.90;;;;;;5064869;28;20203;-68
2023/12/21 11:54:32;;;;;;;10.07;4.15;;;10.90;99.90;;;;;;5065731;28;20669;-69
2023/12/21 11:57:11;;;;;;;13.10;4.43;;;11.00;99.90;;;;;;5064220;28;20589;-71
2023/12/21 11:59:38;;;;;;;11.15;4.15;;;11.00;99.90;;;;;;5066446;28;20272;-67
2023/12/21 12:02:07;;;;;;;25.23;4.72;;;11.10;99.90;;;;;;5067675;28;20251;-69
2023/12/21 12:04:36;;;;;;;15.40;4.75;;;11.20;99.90;;;;;;5062137;28;20302;-68
2023/12/21 12:07:04;;;;;;;10.05;3.75;;;11.20;99.90;;;;;;5064366;28;20630;-67
2023/12/21 12:09:31;;;;;;;7.25;3.20;;;11.20;99.90;;;;;;5063983;28;20236;-69
2023/12/21 12:11:59;;;;;;;14.85;5.55;;;11.20;99.90;;;;;;5061264;28;20202;-66
2023/12/21 12:14:26;;;;;;;14.43;4.25;;;11.20;99.90;;;;;;5057846;28;20210;-67
2023/12/21 12:16:54;;;;;;;15.63;4.63;;;11.20;99.90;;;;;;5066167;28;20227;-67
2023/12/21 12:19:21;;;;;;;7.75;3.47;;;11.30;99.90;;;;;;5066863;28;20287;-71
2023/12/21 12:21:49;;;;;;;11.43;3.47;;;11.30;99.90;;;;;;5077285;28;20304;-69
2023/12/21 12:24:18;;;;;;;16.42;2.88;;;11.40;99.90;;;;;;5061271;28;20203;-70
2023/12/21 12:26:46;;;;;;;17.42;4.25;;;11.40;99.90;;;;;;5062912;28;20612;-70
2023/12/21 12:29:16;;;;;;;18.10;3.20;;;11.50;99.90;;;;;;5060564;28;20294;-67
2023/12/21 12:31:44;;;;;;;16.83;5.80;;;11.60;99.90;;;;;;5066351;28;20222;-66
2023/12/21 12:34:11;;;;;;;13.60;2.75;;;11.50;99.90;;;;;;5068033;28;20339;-67
2023/12/21 12:36:39;;;;;;;6.55;2.22;;;11.10;99.90;;;;;;5068345;28;20255;-68
2023/12/21 12:39:07;;;;;;;7.78;1.63;;;10.40;99.90;;;;;;5066445;28;20262;-70
2023/12/21 12:41:35;;;;;;;6.40;2.20;;;9.90;99.90;;;;;;5068892;28;20678;-69
2023/12/21 12:44:02;;;;;;;7.05;2.40;;;9.50;99.90;;;;;;5059293;28;20661;-70
2023/12/21 12:46:30;;;;;;;4.00;1.75;;;9.30;99.90;;;;;;5056222;28;20219;-69
2023/12/21 12:48:58;;;;;;;11.73;3.08;;;9.10;99.90;;;;;;5065859;28;20209;-69
2023/12/21 12:51:25;;;;;;;6.97;3.15;;;9.00;99.90;;;;;;5065823;28;20199;-67
2023/12/21 12:53:53;;;;;;;10.82;3.45;;;8.90;99.90;;;;;;5054388;28;20228;-69
2023/12/21 12:56:21;;;;;;;6.97;2.70;;;8.80;99.90;;;;;;5067238;28;20262;-70